createdAt,value
2018-08-17T00:01:26.965Z,24.93
2018-08-17T00:03:59.284Z,24.90
2018-08-17T00:06:28.489Z,24.86
2018-08-17T00:08:57.804Z,24.81
2018-08-17T00:11:27.092Z,24.80
2018-08-17T00:13:56.192Z,24.78
2018-08-17T00:16:25.184Z,24.75
2018-08-17T00:18:54.380Z,24.75
2018-08-17T00:21:23.291Z,24.74
2018-08-17T00:23:52.624Z,24.72
2018-08-17T00:26:21.739Z,24.71
2018-08-17T00:28:51.072Z,24.70
2018-08-17T00:31:20.315Z,24.68
2018-08-17T00:33:49.462Z,24.65
2018-08-17T00:36:18.608Z,24.60
2018-08-17T00:38:48.035Z,24.61
2018-08-17T00:41:17.122Z,24.59
2018-08-17T00:43:46.135Z,24.56
2018-08-17T00:46:15.067Z,24.54
2018-08-17T00:48:44.283Z,24.51
2018-08-17T00:51:13.420Z,24.50
2018-08-17T00:53:42.767Z,24.48
2018-08-17T00:56:11.819Z,24.46
2018-08-17T00:58:41.265Z,24.45
2018-08-17T01:01:10.338Z,24.42
2018-08-17T01:03:39.808Z,24.40
2018-08-17T01:06:08.841Z,24.37
2018-08-17T01:08:37.835Z,24.35
2018-08-17T01:11:08.017Z,24.33
2018-08-17T01:13:36.910Z,24.33
2018-08-17T01:16:06.143Z,24.32
2018-08-17T01:18:35.458Z,24.32
2018-08-17T01:21:04.552Z,24.32
2018-08-17T01:23:34.079Z,24.32
2018-08-17T01:26:03.060Z,24.31
2018-08-17T01:28:32.222Z,24.24
2018-08-17T01:31:01.301Z,24.31
2018-08-17T01:33:30.659Z,24.31
2018-08-17T01:35:59.844Z,24.32
2018-08-17T01:38:29.488Z,24.33
2018-08-17T01:40:58.858Z,24.31
2018-08-17T01:43:28.150Z,24.28
2018-08-17T01:45:57.362Z,24.28
2018-08-17T01:48:26.700Z,24.28
2018-08-17T01:50:56.000Z,24.27
2018-08-17T01:53:25.067Z,24.26
2018-08-17T01:55:54.530Z,24.24
2018-08-17T01:58:23.716Z,24.22
2018-08-17T02:00:52.902Z,24.22
2018-08-17T02:03:22.305Z,24.20
2018-08-17T02:05:51.349Z,24.19
2018-08-17T02:08:20.484Z,24.17
2018-08-17T02:10:49.583Z,24.17
2018-08-17T02:13:18.946Z,24.16
2018-08-17T02:15:48.626Z,24.16
2018-08-17T02:18:18.553Z,24.14
2018-08-17T02:20:47.878Z,24.12
2018-08-17T02:23:17.578Z,24.10
2018-08-17T02:25:47.451Z,24.08
2018-08-17T02:28:17.222Z,24.07
2018-08-17T02:30:46.302Z,24.07
2018-08-17T02:33:15.358Z,24.05
2018-08-17T02:35:44.458Z,24.04
2018-08-17T02:38:13.891Z,24.01
2018-08-17T02:40:43.346Z,24.02
2018-08-17T02:43:12.749Z,23.99
2018-08-17T02:45:41.798Z,23.99
2018-08-17T02:48:10.794Z,24.00
2018-08-17T02:50:39.722Z,24.00
2018-08-17T02:53:09.059Z,24.00
2018-08-17T02:55:38.248Z,24.00
2018-08-17T02:58:07.367Z,24.01
2018-08-17T03:00:36.440Z,24.03
2018-08-17T03:03:06.015Z,24.03
2018-08-17T03:05:35.030Z,24.04
2018-08-17T03:08:04.101Z,24.04
2018-08-17T03:10:33.094Z,24.04
2018-08-17T03:13:02.154Z,24.04
2018-08-17T03:15:31.480Z,24.04
2018-08-17T03:18:00.517Z,24.04
2018-08-17T03:20:29.962Z,24.03
2018-08-17T03:22:58.991Z,24.02
2018-08-17T03:25:27.956Z,24.00
2018-08-17T03:27:57.155Z,23.99
2018-08-17T03:30:27.965Z,23.97
2018-08-17T03:32:57.289Z,23.95
2018-08-17T03:35:26.506Z,23.96
2018-08-17T03:37:55.813Z,23.94
2018-08-17T03:40:24.985Z,23.93
2018-08-17T03:42:54.881Z,23.89
2018-08-17T03:45:24.456Z,23.86
2018-08-17T03:47:53.512Z,23.84
2018-08-17T03:50:22.802Z,23.85
2018-08-17T03:52:51.817Z,23.83
2018-08-17T03:55:21.505Z,23.83
2018-08-17T03:57:50.455Z,23.83
2018-08-17T04:00:19.525Z,23.82
2018-08-17T04:02:48.667Z,23.82
2018-08-17T04:05:17.777Z,23.82
2018-08-17T04:07:47.118Z,23.82
2018-08-17T04:10:16.135Z,23.81
2018-08-17T04:12:45.314Z,23.81
2018-08-17T04:15:14.572Z,23.81
2018-08-17T04:17:43.711Z,23.80
2018-08-17T04:20:13.400Z,23.80
2018-08-17T04:22:42.705Z,23.80
2018-08-17T04:25:11.708Z,23.80
2018-08-17T04:27:40.743Z,23.82
2018-08-17T04:30:10.252Z,23.84
2018-08-17T04:32:39.550Z,23.84
2018-08-17T04:35:08.660Z,23.86
2018-08-17T04:37:37.992Z,23.87
2018-08-17T04:40:07.089Z,23.89
2018-08-17T04:42:36.287Z,23.91
2018-08-17T04:45:06.251Z,23.93
2018-08-17T04:47:35.310Z,23.96
2018-08-17T04:50:04.540Z,23.98
2018-08-17T04:52:33.650Z,24.01
2018-08-17T04:55:02.778Z,24.01
2018-08-17T04:57:31.618Z,24.03
2018-08-17T05:00:00.786Z,24.03
2018-08-17T05:02:29.878Z,24.05
2018-08-17T05:04:59.667Z,24.07
2018-08-17T05:07:28.739Z,24.10
2018-08-17T05:09:57.702Z,24.15
2018-08-17T05:12:26.720Z,24.17
2018-08-17T05:14:55.708Z,24.21
2018-08-17T05:17:24.738Z,24.24
2018-08-17T05:19:53.805Z,24.25
2018-08-17T05:22:22.693Z,24.26
2018-08-17T05:24:51.772Z,24.26
2018-08-17T05:27:21.059Z,24.28
2018-08-17T05:29:50.151Z,24.31
2018-08-17T05:32:19.235Z,24.33
2018-08-17T05:34:48.220Z,24.33
2018-08-17T05:37:17.382Z,24.35
2018-08-17T05:39:46.746Z,24.37
2018-08-17T05:42:15.796Z,24.38
2018-08-17T05:44:45.447Z,24.39
2018-08-17T05:47:14.479Z,24.39
2018-08-17T05:49:43.786Z,24.38
2018-08-17T05:52:13.510Z,24.39
2018-08-17T05:54:42.513Z,24.41
2018-08-17T05:57:11.866Z,24.44
2018-08-17T05:59:40.972Z,24.48
2018-08-17T06:02:10.232Z,24.51
2018-08-17T06:04:39.274Z,24.54
2018-08-17T06:07:08.585Z,24.60
2018-08-17T06:09:37.552Z,24.63
2018-08-17T06:12:06.532Z,24.68
2018-08-17T06:14:36.536Z,24.73
2018-08-17T06:17:05.464Z,24.75
2018-08-17T06:19:34.468Z,24.78
2018-08-17T06:22:03.618Z,24.81
2018-08-17T06:24:33.312Z,24.84
2018-08-17T06:27:02.481Z,24.88
2018-08-17T06:29:31.603Z,24.91
2018-08-17T06:32:00.697Z,24.94
2018-08-17T06:34:29.769Z,24.95
2018-08-17T06:36:58.724Z,24.96
2018-08-17T06:39:28.358Z,24.98
2018-08-17T06:41:57.309Z,25.02
2018-08-17T06:44:26.827Z,25.03
2018-08-17T06:46:55.883Z,25.05
2018-08-17T06:49:25.487Z,25.05
2018-08-17T06:51:54.941Z,25.07
2018-08-17T06:54:24.180Z,25.06
2018-08-17T06:56:54.211Z,25.06
2018-08-17T06:59:23.683Z,25.08
2018-08-17T07:01:52.893Z,25.12
2018-08-17T07:04:21.871Z,25.15
2018-08-17T07:06:51.047Z,25.17
2018-08-17T07:09:20.388Z,25.17
2018-08-17T07:11:49.572Z,25.14
2018-08-17T07:14:18.644Z,25.11
2018-08-17T07:16:47.837Z,25.08
2018-08-17T07:19:17.118Z,25.04
2018-08-17T07:21:46.229Z,25.03
2018-08-17T07:24:15.993Z,25.04
2018-08-17T07:26:45.462Z,25.05
2018-08-17T07:29:14.603Z,25.06
2018-08-17T07:31:44.458Z,25.07
2018-08-17T07:34:13.454Z,25.07
2018-08-17T07:36:42.662Z,25.08
2018-08-17T07:39:11.836Z,25.10
2018-08-17T07:41:41.167Z,25.10
2018-08-17T07:44:10.347Z,25.10
2018-08-17T07:46:40.045Z,25.11
2018-08-17T07:49:09.279Z,25.13
2018-08-17T07:51:38.807Z,25.14
2018-08-17T07:54:07.876Z,25.15
2018-08-17T07:56:36.957Z,25.19
2018-08-17T07:59:05.893Z,25.22
2018-08-17T08:01:35.175Z,25.26
2018-08-17T08:04:04.414Z,25.29
2018-08-17T08:06:34.533Z,25.32
2018-08-17T08:09:04.347Z,25.40
2018-08-17T08:11:33.575Z,25.47
2018-08-17T08:14:02.760Z,25.56
2018-08-17T08:16:32.073Z,25.63
2018-08-17T08:19:01.167Z,25.68
2018-08-17T08:21:30.438Z,25.74
2018-08-17T08:23:59.866Z,25.82
2018-08-17T08:26:29.085Z,25.90
2018-08-17T08:28:58.343Z,25.98
2018-08-17T08:31:27.361Z,26.04
2018-08-17T08:33:56.401Z,26.10
2018-08-17T08:36:25.790Z,26.17
2018-08-17T08:38:54.889Z,26.24
2018-08-17T08:41:23.958Z,26.33
2018-08-17T08:43:52.967Z,26.42
2018-08-17T08:46:21.985Z,26.51
2018-08-17T08:48:51.058Z,26.61
2018-08-17T08:51:20.167Z,26.70
2018-08-17T08:53:49.669Z,26.79
2018-08-17T08:56:18.942Z,26.90
2018-08-17T08:58:47.926Z,27.00
2018-08-17T09:01:16.919Z,27.04
2018-08-17T09:03:45.938Z,27.19
2018-08-17T09:06:14.993Z,27.26
2018-08-17T09:08:44.401Z,27.35
2018-08-17T09:11:13.371Z,27.44
2018-08-17T09:13:42.484Z,27.53
2018-08-17T09:16:11.893Z,27.62
2018-08-17T09:18:40.852Z,27.71
2018-08-17T09:21:09.843Z,27.83
2018-08-17T09:23:39.069Z,27.93
2018-08-17T09:26:08.338Z,28.05
2018-08-17T09:28:37.403Z,28.14
2018-08-17T09:31:06.738Z,28.25
2018-08-17T09:33:36.282Z,28.34
2018-08-17T09:36:05.425Z,28.44
2018-08-17T09:38:34.496Z,28.56
2018-08-17T09:41:03.492Z,28.67
2018-08-17T09:43:32.576Z,28.78
2018-08-17T09:46:01.585Z,28.89
2018-08-17T09:48:31.198Z,28.99
2018-08-17T09:51:01.162Z,29.07
2018-08-17T09:53:30.313Z,29.14
2018-08-17T09:55:59.455Z,29.23
2018-08-17T09:58:28.643Z,29.32
2018-08-17T10:01:02.886Z,29.40
2018-08-17T10:10:43.446Z,29.58
2018-08-17T10:13:12.533Z,29.63
2018-08-17T10:15:42.071Z,29.73
2018-08-17T10:18:11.327Z,29.83
2018-08-17T10:20:41.079Z,29.89
2018-08-17T10:23:15.839Z,29.99
2018-08-17T10:25:44.929Z,30.05
2018-08-17T10:28:14.008Z,30.14
2018-08-17T10:30:43.001Z,30.22
2018-08-17T10:33:12.047Z,30.28
2018-08-17T10:35:41.375Z,30.34
2018-08-17T10:38:10.655Z,30.43
2018-08-17T10:40:40.123Z,30.50
2018-08-17T10:43:09.162Z,30.59
2018-08-17T10:45:38.325Z,30.68
2018-08-17T10:48:07.468Z,30.77
2018-08-17T10:50:36.622Z,30.86
2018-08-17T10:53:06.004Z,30.96
2018-08-17T10:55:41.420Z,31.05
2018-08-17T10:58:17.046Z,31.13
2018-08-17T11:00:46.259Z,31.21
2018-08-17T11:03:15.642Z,31.29
2018-08-17T11:05:45.312Z,31.36
2018-08-17T11:08:14.353Z,31.42
2018-08-17T11:10:43.579Z,31.51
2018-08-17T11:13:12.748Z,31.58
2018-08-17T11:15:41.787Z,31.66
2018-08-17T11:18:10.933Z,31.72
2018-08-17T11:20:41.452Z,31.79
2018-08-17T11:23:10.678Z,31.84
2018-08-17T11:25:39.764Z,31.90
2018-08-17T11:28:08.900Z,31.97
2018-08-17T11:30:37.972Z,32.04
2018-08-17T11:33:07.565Z,32.11
2018-08-17T11:35:36.645Z,32.16
2018-08-17T11:38:06.219Z,32.23
2018-08-17T11:40:35.398Z,32.31
2018-08-17T11:43:04.443Z,32.35
2018-08-17T11:45:33.390Z,32.41
2018-08-17T11:48:02.339Z,32.43
2018-08-17T11:50:31.452Z,32.44
2018-08-17T11:53:00.574Z,32.50
2018-08-17T11:55:31.125Z,32.53
2018-08-17T11:58:00.078Z,32.61
2018-08-17T12:00:33.849Z,32.68
2018-08-17T12:03:02.795Z,32.76
2018-08-17T12:05:31.955Z,32.82
2018-08-17T12:08:00.855Z,32.88
2018-08-17T12:10:30.259Z,32.93
2018-08-17T12:13:05.304Z,32.94
2018-08-17T12:15:42.190Z,32.93
2018-08-17T12:18:12.035Z,32.93
2018-08-17T12:20:41.206Z,32.89
2018-08-17T12:23:10.128Z,32.85
2018-08-17T12:25:48.819Z,32.85
2018-08-17T12:28:18.083Z,32.90
2018-08-17T12:30:47.010Z,32.95
2018-08-17T12:33:15.999Z,33.04
2018-08-17T12:35:45.277Z,33.12
2018-08-17T12:38:17.343Z,33.20
2018-08-17T12:40:50.792Z,33.27
2018-08-17T12:43:21.526Z,33.32
2018-08-17T12:45:50.523Z,33.35
2018-08-17T12:48:19.401Z,33.39
2018-08-17T12:50:48.725Z,33.44
2018-08-17T12:53:17.804Z,33.49
2018-08-17T12:55:46.763Z,33.53
2018-08-17T12:58:16.031Z,33.57
2018-08-17T13:00:45.475Z,33.64
2018-08-17T13:03:14.550Z,33.69
2018-08-17T13:05:43.655Z,33.75
2018-08-17T13:08:12.873Z,33.84
2018-08-17T13:10:42.280Z,33.91
2018-08-17T13:13:11.836Z,33.96
2018-08-17T13:15:45.051Z,34.00
2018-08-17T13:18:19.314Z,34.03
2018-08-17T13:20:48.439Z,34.07
2018-08-17T13:23:17.566Z,34.10
2018-08-17T13:25:46.633Z,34.14
2018-08-17T13:28:15.857Z,34.16
2018-08-17T13:30:45.269Z,34.18
2018-08-17T13:33:14.253Z,34.21
2018-08-17T13:35:43.809Z,34.28
2018-08-17T13:38:12.755Z,34.31
2018-08-17T13:40:42.216Z,34.34
2018-08-17T13:43:11.561Z,34.39
2018-08-17T13:45:40.854Z,34.44
2018-08-17T13:48:10.760Z,34.48
2018-08-17T13:50:39.762Z,34.56
2018-08-17T13:53:09.082Z,34.57
2018-08-17T13:55:38.047Z,34.58
2018-08-17T13:58:07.307Z,34.58
2018-08-17T14:00:36.517Z,34.60
2018-08-17T14:03:06.079Z,34.63
2018-08-17T14:05:34.968Z,34.67
2018-08-17T14:08:04.056Z,34.69
2018-08-17T14:10:33.165Z,34.71
2018-08-17T14:13:02.252Z,34.72
2018-08-17T14:15:31.251Z,34.75
2018-08-17T14:18:00.396Z,34.78
2018-08-17T14:20:29.658Z,34.79
2018-08-17T14:22:58.708Z,34.78
2018-08-17T14:25:28.419Z,34.77
2018-08-17T14:27:57.656Z,34.81
2018-08-17T14:30:26.674Z,34.85
2018-08-17T14:32:55.818Z,34.92
2018-08-17T14:35:25.037Z,34.95
2018-08-17T14:37:54.254Z,35.00
2018-08-17T14:40:24.270Z,35.06
2018-08-17T14:42:53.444Z,35.08
2018-08-17T14:45:22.414Z,35.09
2018-08-17T14:47:51.832Z,35.08
2018-08-17T14:50:20.937Z,35.06
2018-08-17T14:52:50.155Z,35.06
2018-08-17T14:55:19.147Z,35.10
2018-08-17T14:57:48.184Z,35.12
2018-08-17T15:00:17.212Z,35.14
2018-08-17T15:02:46.294Z,35.15
2018-08-17T15:05:15.973Z,35.16
2018-08-17T15:07:45.273Z,35.16
2018-08-17T15:10:15.205Z,35.14
2018-08-17T15:12:44.345Z,35.11
2018-08-17T15:15:14.179Z,35.11
2018-08-17T15:17:43.311Z,35.08
2018-08-17T15:20:13.230Z,35.07
2018-08-17T15:22:42.794Z,35.09
2018-08-17T15:25:11.794Z,35.08
2018-08-17T15:27:40.935Z,35.05
2018-08-17T15:30:11.232Z,34.98
2018-08-17T15:32:41.037Z,34.89
2018-08-17T15:35:10.733Z,34.77
2018-08-17T15:37:40.190Z,34.69
2018-08-17T15:40:11.232Z,34.62
2018-08-17T15:42:40.683Z,34.59
2018-08-17T15:45:10.640Z,34.57
2018-08-17T15:47:39.629Z,34.56
2018-08-17T15:50:15.823Z,34.49
2018-08-17T15:52:45.172Z,34.45
2018-08-17T15:55:14.472Z,34.44
2018-08-17T15:57:43.796Z,34.46
2018-08-17T16:00:18.016Z,34.48
2018-08-17T16:02:47.309Z,34.51
2018-08-17T16:05:16.286Z,34.50
2018-08-17T16:07:45.420Z,34.47
2018-08-17T16:10:15.706Z,34.43
2018-08-17T16:12:45.500Z,34.39
2018-08-17T16:15:14.453Z,34.41
2018-08-17T16:17:43.552Z,34.40
2018-08-17T16:20:13.215Z,34.39
2018-08-17T16:22:43.150Z,34.34
2018-08-17T16:25:13.198Z,34.27
2018-08-17T16:27:42.791Z,34.23
2018-08-17T16:30:13.486Z,34.18
2018-08-17T16:32:43.418Z,34.15
2018-08-17T16:35:13.268Z,34.14
2018-08-17T16:37:43.315Z,34.11
2018-08-17T16:40:12.278Z,34.11
2018-08-17T16:42:41.267Z,34.12
2018-08-17T16:45:10.592Z,34.10
2018-08-17T16:47:39.848Z,34.07
2018-08-17T16:50:10.236Z,34.04
2018-08-17T16:52:39.184Z,34.03
2018-08-17T16:55:09.047Z,33.99
2018-08-17T16:57:38.520Z,33.98
2018-08-17T17:00:09.205Z,33.95
2018-08-17T17:02:38.512Z,33.95
2018-08-17T17:05:08.067Z,33.92
2018-08-17T17:07:37.357Z,33.90
2018-08-17T17:10:08.431Z,33.88
2018-08-17T17:12:37.427Z,33.82
2018-08-17T17:15:22.967Z,33.74
2018-08-17T17:17:58.438Z,33.68
2018-08-17T17:20:32.329Z,33.67
2018-08-17T17:23:01.424Z,33.71
2018-08-17T17:25:30.655Z,33.78
2018-08-17T17:28:00.152Z,33.85
2018-08-17T17:30:39.279Z,33.93
2018-08-17T17:33:08.757Z,34.02
2018-08-17T17:35:38.916Z,34.06
2018-08-17T17:38:08.757Z,34.10
2018-08-17T17:40:37.692Z,34.04
2018-08-17T17:43:07.041Z,33.86
2018-08-17T17:45:37.067Z,33.72
2018-08-17T17:48:06.030Z,33.58
2018-08-17T17:50:35.054Z,33.46
2018-08-17T17:53:04.369Z,33.35
2018-08-17T17:55:40.803Z,33.22
2018-08-17T17:58:10.170Z,33.08
2018-08-17T18:00:39.880Z,32.96
2018-08-17T18:03:09.191Z,32.83
2018-08-17T18:05:38.245Z,32.72
2018-08-17T18:08:12.474Z,32.60
2018-08-17T18:10:41.589Z,32.49
2018-08-17T18:13:10.959Z,32.39
2018-08-17T18:15:40.254Z,32.30
2018-08-17T18:18:09.648Z,32.22
2018-08-17T18:20:38.619Z,32.13
2018-08-17T18:23:08.603Z,32.06
2018-08-17T18:25:37.555Z,31.96
2018-08-17T18:28:06.691Z,31.87
2018-08-17T18:30:35.850Z,31.78
2018-08-17T18:33:05.712Z,31.68
2018-08-17T18:35:34.913Z,31.58
2018-08-17T18:38:04.928Z,31.51
2018-08-17T18:40:34.148Z,31.43
2018-08-17T18:43:03.364Z,31.36
2018-08-17T18:45:32.632Z,31.28
2018-08-17T18:48:02.170Z,31.21
2018-08-17T18:50:31.627Z,31.16
2018-08-17T18:53:00.824Z,31.11
2018-08-17T18:55:29.977Z,31.05
2018-08-17T18:57:59.016Z,30.99
2018-08-17T19:00:28.222Z,30.94
2018-08-17T19:02:57.692Z,30.89
2018-08-17T19:05:26.932Z,30.84
2018-08-17T19:07:55.934Z,30.79
2018-08-17T19:10:25.055Z,30.75
2018-08-17T19:12:54.778Z,30.69
2018-08-17T19:15:23.718Z,30.64
2018-08-17T19:17:52.869Z,30.59
2018-08-17T19:20:22.013Z,30.55
2018-08-17T19:22:50.987Z,30.50
2018-08-17T19:25:20.140Z,30.45
2018-08-17T19:27:49.201Z,30.41
2018-08-17T19:30:25.358Z,30.37
2018-08-17T19:32:55.863Z,30.32
2018-08-17T19:35:24.987Z,30.28
2018-08-17T19:37:54.183Z,30.25
2018-08-17T19:40:23.645Z,30.21
2018-08-17T19:42:52.606Z,30.15
2018-08-17T19:45:23.020Z,30.11
2018-08-17T19:47:51.952Z,30.08
2018-08-17T19:50:21.129Z,30.03
2018-08-17T19:52:50.433Z,29.98
2018-08-17T19:55:19.647Z,29.95
2018-08-17T19:57:48.967Z,29.90
2018-08-17T20:00:18.177Z,29.86
2018-08-17T20:02:47.240Z,29.82
2018-08-17T20:05:16.309Z,29.79
2018-08-17T20:07:45.529Z,29.75
2018-08-17T20:10:15.061Z,29.72
2018-08-17T20:12:44.462Z,29.67
2018-08-17T20:15:13.443Z,29.61
2018-08-17T20:17:49.292Z,29.57
2018-08-17T20:20:18.546Z,29.52
2018-08-17T20:22:47.929Z,29.47
2018-08-17T20:25:18.256Z,29.41
2018-08-17T20:27:47.655Z,29.35
2018-08-17T20:30:22.551Z,29.31
2018-08-17T20:32:51.549Z,29.27
2018-08-17T20:35:20.680Z,29.21
2018-08-17T20:37:52.131Z,29.16
2018-08-17T20:40:21.609Z,29.12
2018-08-17T20:42:50.719Z,29.06
2018-08-17T20:45:20.240Z,29.02
2018-08-17T20:47:49.623Z,28.98
2018-08-17T20:50:19.657Z,28.94
2018-08-17T20:52:53.532Z,28.91
2018-08-17T20:55:22.869Z,28.87
2018-08-17T20:57:53.801Z,28.84
2018-08-17T21:00:24.224Z,28.81
2018-08-17T21:02:53.953Z,28.77
2018-08-17T21:05:23.886Z,28.74
2018-08-17T21:07:53.326Z,28.70
2018-08-17T21:10:22.400Z,28.68
2018-08-17T21:12:51.506Z,28.65
2018-08-17T21:15:20.993Z,28.59
2018-08-17T21:17:50.276Z,28.53
2018-08-17T21:20:19.595Z,28.48
2018-08-17T21:22:48.922Z,28.42
2018-08-17T21:25:18.231Z,28.34
2018-08-17T21:27:47.255Z,28.26
2018-08-17T21:30:16.605Z,28.20
2018-08-17T21:32:45.709Z,28.13
2018-08-17T21:35:15.305Z,28.07
2018-08-17T21:37:44.529Z,28.04
2018-08-17T21:40:18.503Z,28.02
2018-08-17T21:42:48.427Z,28.00
2018-08-17T21:45:17.328Z,27.98
2018-08-17T21:47:46.514Z,27.95
2018-08-17T21:50:16.534Z,27.92
2018-08-17T21:52:46.118Z,27.89
2018-08-17T21:55:15.825Z,27.86
2018-08-17T21:57:45.123Z,27.82
2018-08-17T22:00:22.823Z,27.80
2018-08-17T22:02:51.969Z,27.77
2018-08-17T22:05:26.116Z,27.72
2018-08-17T22:07:55.405Z,27.71
2018-08-17T22:10:25.305Z,27.70
2018-08-17T22:12:54.230Z,27.68
2018-08-17T22:15:26.103Z,27.66
2018-08-17T22:17:55.561Z,27.65
2018-08-17T22:20:24.799Z,27.63
2018-08-17T22:22:53.921Z,27.61
2018-08-17T22:25:22.839Z,27.56
2018-08-17T22:27:52.157Z,27.54
2018-08-17T22:30:23.272Z,27.49
2018-08-17T22:32:52.743Z,27.46
2018-08-17T22:35:21.845Z,27.43
2018-08-17T22:37:51.131Z,27.39
2018-08-17T22:40:20.131Z,27.35
2018-08-17T22:42:50.360Z,27.32
2018-08-17T22:45:19.484Z,27.29
2018-08-17T22:47:48.605Z,27.25
2018-08-17T22:50:18.149Z,27.19
2018-08-17T22:52:47.391Z,27.17
2018-08-17T22:55:16.375Z,27.14
2018-08-17T22:57:45.656Z,27.10
2018-08-17T23:00:24.465Z,27.07
2018-08-17T23:02:54.867Z,27.06
2018-08-17T23:05:25.370Z,27.04
2018-08-17T23:07:55.237Z,27.03
2018-08-17T23:10:25.459Z,27.01
2018-08-17T23:12:55.133Z,26.99
2018-08-17T23:15:24.129Z,26.97
2018-08-17T23:18:00.696Z,26.96
2018-08-17T23:20:35.458Z,26.93
2018-08-17T23:23:05.570Z,26.91
2018-08-17T23:25:34.656Z,26.91
2018-08-17T23:28:04.751Z,26.89
2018-08-17T23:30:33.683Z,26.87
2018-08-17T23:33:02.760Z,26.85
2018-08-17T23:35:31.964Z,26.84
2018-08-17T23:38:01.028Z,26.81
2018-08-17T23:40:30.478Z,26.80
2018-08-17T23:43:00.005Z,26.78
2018-08-17T23:45:29.261Z,26.77
2018-08-17T23:47:58.319Z,26.75
2018-08-17T23:50:27.478Z,26.72
2018-08-17T23:52:56.627Z,26.70
2018-08-17T23:55:25.516Z,26.68
2018-08-17T23:57:54.656Z,26.67
